createdAt,value
2022-12-01T00:01:26.732Z,6.84
2022-12-01T00:03:54.575Z,6.84
2022-12-01T00:06:22.472Z,6.84
2022-12-01T00:09:12.979Z,6.86
2022-12-01T00:11:42.815Z,6.87
2022-12-01T00:14:10.376Z,6.88
2022-12-01T00:16:38.568Z,6.90
2022-12-01T00:19:06.142Z,6.92
2022-12-01T00:21:33.665Z,6.93
2022-12-01T00:24:01.233Z,6.94
2022-12-01T00:26:28.867Z,6.95
2022-12-01T00:28:59.865Z,6.95
2022-12-01T00:31:27.866Z,6.93
2022-12-01T00:33:55.632Z,6.94
2022-12-01T00:36:24.188Z,6.96
2022-12-01T00:38:53.704Z,7.00
2022-12-01T00:41:22.291Z,7.00
2022-12-01T00:43:51.243Z,6.96
2022-12-01T00:46:18.918Z,6.96
2022-12-01T00:48:46.587Z,6.96
2022-12-01T00:51:14.330Z,6.99
2022-12-01T00:53:42.548Z,6.98
2022-12-01T00:56:10.288Z,6.98
2022-12-01T00:58:37.926Z,6.97
2022-12-01T01:01:05.984Z,6.97
2022-12-01T01:03:34.623Z,6.95
2022-12-01T01:06:08.171Z,6.95
2022-12-01T01:08:36.263Z,6.95
2022-12-01T01:11:04.861Z,6.93
2022-12-01T01:13:33.348Z,6.91
2022-12-01T01:16:03.851Z,6.92
2022-12-01T01:18:32.296Z,6.92
2022-12-01T01:21:07.038Z,6.93
2022-12-01T01:23:34.996Z,6.91
2022-12-01T01:26:13.658Z,6.90
2022-12-01T01:28:41.787Z,6.89
2022-12-01T01:31:12.391Z,6.87
2022-12-01T01:33:40.346Z,6.84
2022-12-01T01:36:08.664Z,6.82
2022-12-01T01:38:37.272Z,6.83
2022-12-01T01:41:07.372Z,6.84
2022-12-01T01:43:39.316Z,6.83
2022-12-01T01:46:08.556Z,6.80
2022-12-01T01:48:38.610Z,6.77
2022-12-01T01:51:07.964Z,6.74
2022-12-01T01:53:35.951Z,6.72
2022-12-01T01:56:04.996Z,6.69
2022-12-01T01:58:33.655Z,6.65
2022-12-01T02:01:01.389Z,6.63
2022-12-01T02:03:30.187Z,6.63
2022-12-01T02:06:03.430Z,6.65
2022-12-01T02:08:35.779Z,6.68
2022-12-01T02:11:31.433Z,6.71
2022-12-01T02:14:16.169Z,6.72
2022-12-01T02:17:01.885Z,6.74
2022-12-01T02:20:09.414Z,6.74
2022-12-01T02:23:28.335Z,6.78
2022-12-01T02:26:20.481Z,6.78
2022-12-01T02:29:15.240Z,6.77
2022-12-01T02:32:16.469Z,6.77
2022-12-01T02:34:55.690Z,6.75
2022-12-01T02:37:27.069Z,6.74
2022-12-01T02:40:18.120Z,6.76
2022-12-01T02:43:05.878Z,6.77
2022-12-01T02:45:43.699Z,6.76
2022-12-01T02:48:39.324Z,6.75
2022-12-01T02:51:15.175Z,6.75
2022-12-01T02:53:43.247Z,6.74
2022-12-01T02:56:13.416Z,6.75
2022-12-01T02:58:41.916Z,6.75
2022-12-01T03:01:38.673Z,6.74
2022-12-01T03:04:32.937Z,6.73
2022-12-01T03:07:09.294Z,6.73
2022-12-01T03:10:04.123Z,6.71
2022-12-01T03:12:46.372Z,6.71
2022-12-01T03:15:45.293Z,6.72
2022-12-01T03:18:50.910Z,6.70
2022-12-01T03:21:30.980Z,6.72
2022-12-01T03:24:26.448Z,6.76
2022-12-01T03:26:57.431Z,6.73
2022-12-01T03:29:33.710Z,6.71
2022-12-01T03:32:08.407Z,6.69
2022-12-01T03:34:35.916Z,6.70
2022-12-01T03:37:10.637Z,6.70
2022-12-01T03:39:40.249Z,6.70
2022-12-01T03:42:39.140Z,6.71
2022-12-01T03:45:19.790Z,6.73
2022-12-01T03:47:47.376Z,6.76
2022-12-01T03:50:18.642Z,6.79
2022-12-01T03:53:11.358Z,6.83
2022-12-01T03:55:46.805Z,6.81
2022-12-01T03:58:23.011Z,6.79
2022-12-01T04:00:53.454Z,6.79
2022-12-01T04:03:24.870Z,6.79
2022-12-01T04:05:52.619Z,6.81
2022-12-01T04:08:20.693Z,6.81
2022-12-01T04:10:48.243Z,6.83
2022-12-01T04:13:25.679Z,6.86
2022-12-01T04:15:55.151Z,6.86
2022-12-01T04:18:22.772Z,6.84
2022-12-01T04:20:50.660Z,6.86
2022-12-01T04:23:36.679Z,6.86
2022-12-01T04:26:05.247Z,6.85
2022-12-01T04:28:32.930Z,6.86
2022-12-01T04:31:00.575Z,6.87
2022-12-01T04:33:29.565Z,6.88
2022-12-01T04:36:00.910Z,6.88
2022-12-01T04:38:30.742Z,6.89
2022-12-01T04:40:58.854Z,6.91
2022-12-01T04:43:26.515Z,6.93
2022-12-01T04:45:53.999Z,6.91
2022-12-01T04:48:21.488Z,6.91
2022-12-01T04:50:49.976Z,6.90
2022-12-01T04:53:17.538Z,6.85
2022-12-01T04:55:45.132Z,6.87
2022-12-01T04:58:13.071Z,6.86
2022-12-01T05:00:40.892Z,6.87
2022-12-01T05:03:13.543Z,6.86
2022-12-01T05:05:42.676Z,6.87
2022-12-01T05:08:10.736Z,6.90
2022-12-01T05:10:39.091Z,6.91
2022-12-01T05:13:06.692Z,6.94
2022-12-01T05:15:34.332Z,6.93
2022-12-01T05:18:01.934Z,6.93
2022-12-01T05:20:48.522Z,6.89
2022-12-01T05:23:17.144Z,6.86
2022-12-01T05:25:44.899Z,6.85
2022-12-01T05:28:12.651Z,6.86
2022-12-01T05:30:40.935Z,6.86
2022-12-01T05:33:08.534Z,6.88
2022-12-01T05:35:36.144Z,6.88
2022-12-01T05:38:07.811Z,6.89
2022-12-01T05:40:37.040Z,6.88
2022-12-01T05:43:04.952Z,6.90
2022-12-01T05:45:33.745Z,6.92
2022-12-01T05:48:02.241Z,6.92
2022-12-01T05:50:31.048Z,6.91
2022-12-01T05:52:58.606Z,6.92
2022-12-01T05:55:26.247Z,6.93
2022-12-01T05:57:53.800Z,6.94
2022-12-01T06:00:21.456Z,6.94
2022-12-01T06:02:49.168Z,6.95
2022-12-01T06:05:16.967Z,6.95
2022-12-01T06:07:44.570Z,6.95
2022-12-01T06:10:12.897Z,6.96
2022-12-01T06:12:40.462Z,6.97
2022-12-01T06:15:08.631Z,6.99
2022-12-01T06:17:40.227Z,7.02
2022-12-01T06:20:09.284Z,7.05
2022-12-01T06:22:36.927Z,7.03
2022-12-01T06:25:04.837Z,7.05
2022-12-01T06:27:32.554Z,7.07
2022-12-01T06:30:00.196Z,7.05
2022-12-01T06:32:27.684Z,7.08
2022-12-01T06:34:55.238Z,7.07
2022-12-01T06:37:22.831Z,7.09
2022-12-01T06:39:50.819Z,7.07
2022-12-01T06:42:18.633Z,7.06
2022-12-01T06:44:46.418Z,7.02
2022-12-01T06:47:15.570Z,6.99
2022-12-01T06:49:43.248Z,6.99
2022-12-01T06:52:10.819Z,6.97
2022-12-01T06:54:39.702Z,6.97
2022-12-01T06:57:07.614Z,6.99
2022-12-01T06:59:35.351Z,6.97
2022-12-01T07:02:03.295Z,6.97
2022-12-01T07:04:31.203Z,6.99
2022-12-01T07:06:58.997Z,7.00
2022-12-01T07:09:26.526Z,7.02
2022-12-01T07:11:54.098Z,7.03
2022-12-01T07:14:26.810Z,7.03
2022-12-01T07:16:54.716Z,7.06
2022-12-01T07:19:22.352Z,7.07
2022-12-01T07:21:50.366Z,7.07
2022-12-01T07:24:18.140Z,7.08
2022-12-01T07:26:45.734Z,7.09
2022-12-01T07:29:13.359Z,7.10
2022-12-01T07:31:41.007Z,7.15
2022-12-01T07:34:12.937Z,7.18
2022-12-01T07:36:40.545Z,7.18
2022-12-01T07:39:08.770Z,7.17
2022-12-01T07:41:36.467Z,7.16
2022-12-01T07:44:04.217Z,7.18
2022-12-01T07:46:32.078Z,7.20
2022-12-01T07:49:00.481Z,7.22
2022-12-01T07:51:29.150Z,7.24
2022-12-01T07:53:56.745Z,7.21
2022-12-01T07:56:24.412Z,7.21
2022-12-01T07:58:52.152Z,7.21
2022-12-01T08:01:22.791Z,7.23
2022-12-01T08:03:52.353Z,7.24
2022-12-01T08:06:20.638Z,7.25
2022-12-01T08:08:49.243Z,7.28
2022-12-01T08:11:20.149Z,7.29
2022-12-01T08:13:47.828Z,7.29
2022-12-01T08:16:17.810Z,7.31
2022-12-01T08:18:46.034Z,7.30
2022-12-01T08:21:15.931Z,7.31
2022-12-01T08:23:44.290Z,7.32
2022-12-01T08:26:17.239Z,7.34
2022-12-01T08:28:46.280Z,7.36
2022-12-01T08:31:19.119Z,7.36
2022-12-01T08:33:48.459Z,7.41
2022-12-01T08:36:16.731Z,7.43
2022-12-01T08:38:45.573Z,7.47
2022-12-01T08:41:14.239Z,7.51
2022-12-01T08:44:00.448Z,7.49
2022-12-01T08:46:32.786Z,7.49
2022-12-01T08:49:01.409Z,7.48
2022-12-01T08:51:29.220Z,7.50
2022-12-01T08:53:58.202Z,7.51
2022-12-01T08:56:32.674Z,7.52
2022-12-01T08:59:00.862Z,7.55
2022-12-01T09:01:29.299Z,7.58
2022-12-01T09:04:10.716Z,7.59
2022-12-01T09:06:43.560Z,7.64
2022-12-01T09:09:14.616Z,7.66
2022-12-01T09:11:46.254Z,7.67
2022-12-01T09:14:16.238Z,7.69
2022-12-01T09:16:46.550Z,7.68
2022-12-01T09:19:22.143Z,7.67
2022-12-01T09:21:51.695Z,7.63
2022-12-01T09:24:19.602Z,7.61
2022-12-01T09:26:47.461Z,7.63
2022-12-01T09:29:16.728Z,7.60
2022-12-01T09:31:45.017Z,7.60
2022-12-01T09:34:15.852Z,7.60
2022-12-01T09:36:44.441Z,7.64
2022-12-01T09:39:14.989Z,7.68
2022-12-01T09:41:54.587Z,7.71
2022-12-01T09:44:39.433Z,7.76
2022-12-01T09:47:26.605Z,7.78
2022-12-01T09:50:03.318Z,7.80
2022-12-01T09:52:42.201Z,7.83
2022-12-01T09:55:15.523Z,7.85
2022-12-01T09:57:46.830Z,7.87
2022-12-01T10:00:21.222Z,7.87
2022-12-01T10:02:56.234Z,7.87
2022-12-01T10:05:29.220Z,7.89
2022-12-01T10:08:02.367Z,7.92
2022-12-01T10:11:05.891Z,7.95
2022-12-01T10:13:34.221Z,7.97
2022-12-01T10:16:11.364Z,7.99
2022-12-01T10:18:56.256Z,8.01
2022-12-01T10:21:40.869Z,8.02
2022-12-01T10:24:14.461Z,8.05
2022-12-01T10:27:21.876Z,8.08
2022-12-01T10:29:54.802Z,8.11
2022-12-01T10:32:38.124Z,8.14
2022-12-01T10:35:07.101Z,8.14
2022-12-01T10:37:34.877Z,8.17
2022-12-01T10:40:02.737Z,8.19
2022-12-01T10:42:50.705Z,8.24
2022-12-01T10:45:27.287Z,8.24
2022-12-01T10:48:10.364Z,8.26
2022-12-01T10:50:38.164Z,8.29
2022-12-01T10:53:05.798Z,8.35
2022-12-01T10:55:43.437Z,8.39
2022-12-01T10:58:17.455Z,8.42
2022-12-01T11:01:00.591Z,8.44
2022-12-01T11:03:31.904Z,8.45
2022-12-01T11:06:03.404Z,8.48
2022-12-01T11:08:52.601Z,8.49
2022-12-01T11:11:23.828Z,8.52
2022-12-01T11:13:51.735Z,8.53
2022-12-01T11:16:41.553Z,8.54
2022-12-01T11:19:27.363Z,8.56
2022-12-01T11:21:58.464Z,8.55
2022-12-01T11:24:33.782Z,8.54
2022-12-01T11:27:01.961Z,8.52
2022-12-01T11:29:39.672Z,8.51
2022-12-01T11:32:29.594Z,8.54
2022-12-01T11:35:14.960Z,8.56
2022-12-01T11:38:27.930Z,8.56
2022-12-01T11:40:51.712Z,8.56
2022-12-01T11:43:41.543Z,8.54
2022-12-01T11:46:11.610Z,8.52
2022-12-01T11:48:39.288Z,8.51
2022-12-01T11:51:09.481Z,8.51
2022-12-01T11:53:42.687Z,8.52
2022-12-01T11:56:31.581Z,8.54
2022-12-01T11:59:02.679Z,8.56
2022-12-01T12:01:45.344Z,8.59
2022-12-01T12:04:37.376Z,8.59
2022-12-01T12:07:35.061Z,8.61
2022-12-01T12:10:24.514Z,8.62
2022-12-01T12:13:13.443Z,8.61
2022-12-01T12:15:50.142Z,8.64
2022-12-01T12:18:27.282Z,8.67
2022-12-01T12:20:57.880Z,8.69
2022-12-01T12:23:57.386Z,8.71
2022-12-01T12:26:57.775Z,8.77
2022-12-01T12:29:52.231Z,8.76
2022-12-01T12:32:25.639Z,8.78
2022-12-01T12:35:17.234Z,8.78
2022-12-01T12:37:44.855Z,8.78
2022-12-01T12:40:30.326Z,8.78
2022-12-01T12:43:22.695Z,8.79
2022-12-01T12:46:11.433Z,8.77
2022-12-01T12:49:12.154Z,8.77
2022-12-01T12:52:02.602Z,8.78
2022-12-01T12:54:47.975Z,8.80
2022-12-01T12:57:25.825Z,8.80
2022-12-01T12:59:58.002Z,8.82
2022-12-01T13:02:44.520Z,8.81
2022-12-01T13:05:25.854Z,8.82
2022-12-01T13:08:16.848Z,8.81
2022-12-01T13:10:58.174Z,8.82
2022-12-01T13:13:46.316Z,8.86
2022-12-01T13:16:19.710Z,8.92
2022-12-01T13:18:53.755Z,8.94
2022-12-01T13:21:22.882Z,8.98
2022-12-01T13:23:52.905Z,8.99
2022-12-01T13:26:22.605Z,9.00
2022-12-01T13:28:53.858Z,9.00
2022-12-01T13:31:23.009Z,8.98
2022-12-01T13:34:01.917Z,9.01
2022-12-01T13:36:47.656Z,9.03
2022-12-01T13:39:28.071Z,9.06
2022-12-01T13:42:17.073Z,9.07
2022-12-01T13:44:53.017Z,9.09
2022-12-01T13:47:20.671Z,9.13
2022-12-01T13:49:50.823Z,9.16
2022-12-01T13:52:21.669Z,9.18
2022-12-01T13:55:12.091Z,9.20
2022-12-01T13:57:50.464Z,9.23
2022-12-01T14:00:24.217Z,9.23
2022-12-01T14:03:10.817Z,9.22
2022-12-01T14:06:09.015Z,9.24
2022-12-01T14:08:46.297Z,9.26
2022-12-01T14:11:22.006Z,9.26
2022-12-01T14:13:49.591Z,9.27
2022-12-01T14:16:17.441Z,9.28
2022-12-01T14:18:56.886Z,9.26
2022-12-01T14:21:47.046Z,9.25
2022-12-01T14:24:34.374Z,9.23
2022-12-01T14:27:03.549Z,9.23
2022-12-01T14:29:38.544Z,9.20
2022-12-01T14:32:09.204Z,9.19
2022-12-01T14:34:38.224Z,9.19
2022-12-01T14:37:16.825Z,9.18
2022-12-01T14:39:56.407Z,9.16
2022-12-01T14:43:03.790Z,9.13
2022-12-01T14:45:39.365Z,9.12
2022-12-01T14:48:25.165Z,9.13
2022-12-01T14:51:09.799Z,9.12
2022-12-01T14:53:44.571Z,9.14
2022-12-01T14:56:16.736Z,9.16
2022-12-01T14:59:01.619Z,9.18
2022-12-01T15:01:34.123Z,9.20
2022-12-01T15:04:04.738Z,9.22
2022-12-01T15:06:34.761Z,9.22
2022-12-01T15:09:33.333Z,9.24
2022-12-01T15:12:06.966Z,9.25
2022-12-01T15:14:46.637Z,9.28
2022-12-01T15:17:31.379Z,9.31
2022-12-01T15:19:59.386Z,9.32
2022-12-01T15:22:31.808Z,9.32
2022-12-01T15:25:29.029Z,9.30
2022-12-01T15:28:12.071Z,9.33
2022-12-01T15:30:41.733Z,9.33
2022-12-01T15:33:28.411Z,9.33
2022-12-01T15:36:00.442Z,9.32
2022-12-01T15:38:37.384Z,9.32
2022-12-01T15:44:03.609Z,9.39
2022-12-01T15:46:34.497Z,9.39
2022-12-01T15:49:16.484Z,9.41
2022-12-01T15:51:44.770Z,9.43
2022-12-01T15:54:26.458Z,9.43
2022-12-01T15:56:56.218Z,9.44
2022-12-01T15:59:49.297Z,9.44
2022-12-01T16:02:20.217Z,9.43
2022-12-01T16:04:49.664Z,9.43
2022-12-01T16:07:17.589Z,9.43
2022-12-01T16:09:58.916Z,9.43
2022-12-01T16:12:33.058Z,9.43
2022-12-01T16:15:00.592Z,9.45
2022-12-01T16:17:40.473Z,9.46
2022-12-01T16:20:31.725Z,9.48
2022-12-01T16:23:02.909Z,9.49
2022-12-01T16:25:48.844Z,9.50
2022-12-01T16:28:36.447Z,9.50
2022-12-01T16:31:06.051Z,9.50
2022-12-01T16:33:39.184Z,9.50
2022-12-01T16:36:07.193Z,9.52
2022-12-01T16:38:34.958Z,9.49
2022-12-01T16:41:15.895Z,9.49
2022-12-01T16:44:05.497Z,9.48
2022-12-01T16:46:32.089Z,9.48
2022-12-01T16:48:59.780Z,9.48
2022-12-01T16:51:35.624Z,9.50
2022-12-01T16:54:10.497Z,9.51
2022-12-01T16:56:38.109Z,9.51
2022-12-01T16:59:05.871Z,9.51
2022-12-01T17:01:33.566Z,9.50
2022-12-01T17:04:06.030Z,9.50
2022-12-01T17:06:36.186Z,9.50
2022-12-01T17:09:03.895Z,9.48
2022-12-01T17:11:32.671Z,9.48
2022-12-01T17:14:00.309Z,9.46
2022-12-01T17:16:28.143Z,9.46
2022-12-01T17:18:55.941Z,9.47
2022-12-01T17:21:23.534Z,9.48
2022-12-01T17:23:51.150Z,9.49
2022-12-01T17:26:20.588Z,9.51
2022-12-01T17:28:48.646Z,9.51
2022-12-01T17:31:16.770Z,9.51
2022-12-01T17:33:44.468Z,9.51
2022-12-01T17:36:13.917Z,9.51
2022-12-01T17:38:46.140Z,9.52
2022-12-01T17:41:16.951Z,9.52
2022-12-01T17:43:44.830Z,9.51
2022-12-01T17:46:13.227Z,9.53
2022-12-01T17:48:43.682Z,9.53
2022-12-01T17:51:13.532Z,9.53
2022-12-01T17:53:41.468Z,9.52
2022-12-01T17:56:10.719Z,9.51
2022-12-01T17:58:38.736Z,9.53
2022-12-01T18:01:12.559Z,9.53
2022-12-01T18:03:41.415Z,9.53
2022-12-01T18:06:09.368Z,9.54
2022-12-01T18:08:37.916Z,9.55
2022-12-01T18:11:10.054Z,9.54
2022-12-01T18:13:39.437Z,9.56
2022-12-01T18:16:15.700Z,9.54
2022-12-01T18:18:43.736Z,9.56
2022-12-01T18:21:16.836Z,9.56
2022-12-01T18:23:51.334Z,9.56
2022-12-01T18:26:21.944Z,9.55
2022-12-01T18:28:58.132Z,9.56
2022-12-01T18:31:26.685Z,9.56
2022-12-01T18:33:54.265Z,9.57
2022-12-01T18:36:24.403Z,9.56
2022-12-01T18:38:53.574Z,9.56
2022-12-01T18:41:21.245Z,9.57
2022-12-01T18:43:49.382Z,9.58
2022-12-01T18:46:18.968Z,9.58
2022-12-01T18:48:48.780Z,9.59
2022-12-01T18:51:16.346Z,9.57
2022-12-01T18:53:45.545Z,9.54
2022-12-01T18:56:15.426Z,9.54
2022-12-01T18:58:43.231Z,9.53
2022-12-01T19:01:25.557Z,9.51
2022-12-01T19:03:55.506Z,9.50
2022-12-01T19:06:23.885Z,9.47
2022-12-01T19:08:52.809Z,9.47
2022-12-01T19:11:21.007Z,9.46
2022-12-01T19:13:48.772Z,9.47
2022-12-01T19:16:18.007Z,9.45
2022-12-01T19:18:46.312Z,9.44
2022-12-01T19:21:16.886Z,9.42
2022-12-01T19:23:46.433Z,9.40
2022-12-01T19:26:17.057Z,9.38
2022-12-01T19:28:45.859Z,9.32
2022-12-01T19:31:17.776Z,9.29
2022-12-01T19:33:46.094Z,9.26
2022-12-01T19:36:20.086Z,9.21
2022-12-01T19:38:48.776Z,9.18
2022-12-01T19:41:16.947Z,9.13
2022-12-01T19:43:44.679Z,9.09
2022-12-01T19:46:15.740Z,9.08
2022-12-01T19:48:45.629Z,9.07
2022-12-01T19:51:22.318Z,9.04
2022-12-01T19:53:50.827Z,9.03
2022-12-01T19:56:18.527Z,9.02
2022-12-01T19:58:46.417Z,8.99
2022-12-01T20:01:16.208Z,8.97
2022-12-01T20:03:49.326Z,8.95
2022-12-01T20:06:20.161Z,8.96
2022-12-01T20:08:47.846Z,8.97
2022-12-01T20:11:15.895Z,9.00
2022-12-01T20:13:45.618Z,9.03
2022-12-01T20:16:22.947Z,9.04
2022-12-01T20:18:51.762Z,9.04
2022-12-01T20:21:25.719Z,9.04
2022-12-01T20:24:01.369Z,9.02
2022-12-01T20:26:42.490Z,8.99
2022-12-01T20:29:20.846Z,8.97
2022-12-01T20:31:50.223Z,8.92
2022-12-01T20:34:27.315Z,8.86
2022-12-01T20:36:56.898Z,8.86
2022-12-01T20:39:24.855Z,8.85
2022-12-01T20:41:52.839Z,8.85
2022-12-01T20:44:21.533Z,8.86
2022-12-01T20:46:49.541Z,8.88
2022-12-01T20:49:18.536Z,8.89
2022-12-01T20:51:47.588Z,8.92
2022-12-01T20:54:27.878Z,8.93
2022-12-01T20:56:55.913Z,8.93
2022-12-01T20:59:23.520Z,8.94
2022-12-01T21:01:51.170Z,8.94
2022-12-01T21:04:18.845Z,8.95
2022-12-01T21:06:47.380Z,8.95
2022-12-01T21:09:15.111Z,8.97
2022-12-01T21:12:07.003Z,8.99
2022-12-01T21:14:37.839Z,9.03
2022-12-01T21:17:32.115Z,9.05
2022-12-01T21:20:21.452Z,9.06
2022-12-01T21:22:51.253Z,9.07
2022-12-01T21:25:22.392Z,9.06
2022-12-01T21:27:50.414Z,9.07
2022-12-01T21:30:21.097Z,9.05
2022-12-01T21:32:49.674Z,9.07
2022-12-01T21:35:22.808Z,9.08
2022-12-01T21:37:58.278Z,9.08
2022-12-01T21:40:27.149Z,9.09
2022-12-01T21:42:56.533Z,9.11
2022-12-01T21:45:29.923Z,9.14
2022-12-01T21:48:13.051Z,9.16
2022-12-01T21:50:40.704Z,9.19
2022-12-01T21:53:16.253Z,9.20
2022-12-01T21:55:46.349Z,9.20
2022-12-01T21:58:36.390Z,9.22
2022-12-01T22:01:16.875Z,9.25
2022-12-01T22:03:46.084Z,9.25
2022-12-01T22:06:30.846Z,9.28
2022-12-01T22:09:02.475Z,9.30
2022-12-01T22:11:31.233Z,9.32
2022-12-01T22:14:22.057Z,9.35
2022-12-01T22:16:59.825Z,9.39
2022-12-01T22:19:33.431Z,9.42
2022-12-01T22:22:15.728Z,9.44
2022-12-01T22:24:44.688Z,9.49
2022-12-01T22:27:37.211Z,9.46
2022-12-01T22:30:08.037Z,9.49
2022-12-01T22:32:40.473Z,9.53
2022-12-01T22:35:07.997Z,9.55
2022-12-01T22:37:46.707Z,9.57
2022-12-01T22:40:32.740Z,9.59
2022-12-01T22:43:18.383Z,9.62
2022-12-01T22:46:00.683Z,9.64
2022-12-01T22:48:28.255Z,9.63
2022-12-01T22:51:21.632Z,9.67
2022-12-01T22:53:50.031Z,9.68
2022-12-01T22:56:17.492Z,9.72
2022-12-01T22:58:45.048Z,9.74
2022-12-01T23:01:28.592Z,9.74
2022-12-01T23:04:15.256Z,9.75
2022-12-01T23:06:55.001Z,9.74
2022-12-01T23:09:26.545Z,9.72
2022-12-01T23:12:00.105Z,9.72
2022-12-01T23:14:28.422Z,9.72
2022-12-01T23:17:05.570Z,9.72
2022-12-01T23:19:34.723Z,9.74
2022-12-01T23:22:02.555Z,9.75
2022-12-01T23:24:33.896Z,9.72
2022-12-01T23:27:02.198Z,9.71
2022-12-01T23:29:30.475Z,9.70
2022-12-01T23:31:58.134Z,9.71
2022-12-01T23:34:25.793Z,9.71
2022-12-01T23:36:53.564Z,9.74
2022-12-01T23:39:30.252Z,9.73
2022-12-01T23:41:57.868Z,9.74
2022-12-01T23:44:40.932Z,9.73
2022-12-01T23:47:34.682Z,9.72
2022-12-01T23:50:04.428Z,9.71
2022-12-01T23:52:35.538Z,9.71
2022-12-01T23:55:14.581Z,9.72
2022-12-01T23:57:43.055Z,9.73
